Time,TemperatureF,DewpointF,PressureIn,WindDirection,WindDirectionDegrees,WindSpeedMPH,WindSpeedGustMPH,Humidity,HourlyPrecipIn,Conditions,Clouds,dailyrainin,SolarRadiationWatts/m^2,SoftwareType,DateUTC
2013-11-16 00:00:00,40.8,35.7,29.88,SSE,147,4.0,4.0,82,0.00,,,0.00,0,Wunderground v.1.15,2013-11-16 06:00:00,
2013-11-16 00:05:00,40.7,35.9,29.87,SSE,167,3.0,4.0,83,0.00,,,0.00,0,Wunderground v.1.15,2013-11-16 06:05:00,
2013-11-16 00:10:00,40.6,35.8,29.87,SSE,150,4.0,4.0,83,0.00,,,0.00,0,Wunderground v.1.15,2013-11-16 06:10:00,
2013-11-16 00:15:00,40.5,35.7,29.87,SSE,160,4.0,4.0,83,0.00,,,0.00,0,Wunderground v.1.15,2013-11-16 06:15:00,
2013-11-16 00:20:00,40.4,35.6,29.87,SE,140,4.0,4.0,83,0.00,,,0.00,0,Wunderground v.1.15,2013-11-16 06:20:00,
2013-11-16 00:25:00,40.4,35.9,29.87,SE,139,4.0,7.0,84,0.00,,,0.00,0,Wunderground v.1.15,2013-11-16 06:25:00,
2013-11-16 00:30:00,40.3,35.8,29.87,SSE,163,4.0,6.0,84,0.00,,,0.00,0,Wunderground v.1.15,2013-11-16 06:30:00,
2013-11-16 00:40:00,40.0,35.6,29.86,SSE,165,3.0,4.0,84,0.00,,,0.00,0,Wunderground v.1.15,2013-11-16 06:40:00,
2013-11-16 00:45:00,39.9,35.8,29.86,SE,130,3.0,5.0,85,0.00,,,0.00,0,Wunderground v.1.15,2013-11-16 06:45:00,
2013-11-16 00:50:00,39.8,35.7,29.86,SSE,148,4.0,4.0,85,0.00,,,0.00,0,Wunderground v.1.15,2013-11-16 06:50:00,
2013-11-16 00:55:00,39.8,35.7,29.85,ESE,109,4.0,4.0,85,0.00,,,0.00,0,Wunderground v.1.15,2013-11-16 06:55:00,
2013-11-16 01:05:00,39.8,36.0,29.85,SE,144,4.0,4.0,86,0.00,,,0.00,0,Wunderground v.1.15,2013-11-16 07:05:00,
2013-11-16 01:15:00,40.2,36.3,29.85,SE,124,4.0,4.0,86,0.00,,,0.00,0,Wunderground v.1.15,2013-11-16 07:15:00,
2013-11-16 01:20:00,40.4,36.5,29.85,SSE,163,4.0,4.0,86,0.00,,,0.00,0,Wunderground v.1.15,2013-11-16 07:20:00,
2013-11-16 01:25:00,40.5,36.9,29.85,SE,140,3.0,3.0,87,0.00,,,0.00,0,Wunderground v.1.15,2013-11-16 07:25:00,
2013-11-16 01:30:00,40.7,37.1,29.85,SE,132,3.0,3.0,87,0.00,,,0.00,0,Wunderground v.1.15,2013-11-16 07:30:00,
2013-11-16 01:35:00,40.9,37.6,29.85,South,176,3.0,7.0,88,0.00,,,0.00,0,Wunderground v.1.15,2013-11-16 07:35:00,
2013-11-16 01:40:00,41.4,38.1,29.84,SE,136,3.0,7.0,88,0.00,,,0.00,0,Wunderground v.1.15,2013-11-16 07:40:00,
2013-11-16 01:50:00,42.1,38.8,29.84,SE,141,4.0,4.0,88,0.00,,,0.00,0,Wunderground v.1.15,2013-11-16 07:50:00,
2013-11-16 01:55:00,42.3,38.7,29.84,SE,132,4.0,4.0,87,0.00,,,0.00,0,Wunderground v.1.15,2013-11-16 07:55:00,
2013-11-16 02:05:00,42.6,39.0,29.84,SSE,165,4.0,4.0,87,0.00,,,0.00,0,Wunderground v.1.15,2013-11-16 08:05:00,
2013-11-16 02:15:00,42.9,39.3,29.85,South,174,6.0,6.0,87,0.00,,,0.00,0,Wunderground v.1.15,2013-11-16 08:15:00,
2013-11-16 02:20:00,43.1,39.5,29.84,ENE,77,6.0,6.0,87,0.00,,,0.00,0,Wunderground v.1.15,2013-11-16 08:20:00,
2013-11-16 02:30:00,43.4,39.8,29.85,South,185,4.0,4.0,87,0.00,,,0.00,0,Wunderground v.1.15,2013-11-16 08:30:00,
2013-11-16 02:35:00,43.4,39.8,29.85,South,174,4.0,4.0,87,0.00,,,0.00,0,Wunderground v.1.15,2013-11-16 08:35:00,
2013-11-16 02:40:00,43.5,39.9,29.84,SSE,168,4.0,4.0,87,0.00,,,0.00,0,Wunderground v.1.15,2013-11-16 08:40:00,
2013-11-16 02:50:00,43.7,40.1,29.85,SSE,152,4.0,4.0,87,0.00,,,0.00,0,Wunderground v.1.15,2013-11-16 08:50:00,
2013-11-16 03:00:00,43.9,40.3,29.84,SSE,159,4.0,4.0,87,0.00,,,0.00,0,Wunderground v.1.15,2013-11-16 09:00:00,
2013-11-16 03:05:00,44.0,40.4,29.84,SSE,155,5.0,5.0,87,0.00,,,0.00,0,Wunderground v.1.15,2013-11-16 09:05:00,
2013-11-16 03:10:00,44.2,40.6,29.83,SSE,148,5.0,5.0,87,0.00,,,0.00,0,Wunderground v.1.15,2013-11-16 09:10:00,
2013-11-16 03:15:00,44.3,40.7,29.83,SE,146,5.0,5.0,87,0.00,,,0.00,0,Wunderground v.1.15,2013-11-16 09:15:00,
2013-11-16 03:20:00,44.4,40.8,29.84,SSE,157,4.0,5.0,87,0.00,,,0.00,0,Wunderground v.1.15,2013-11-16 09:20:00,
2013-11-16 03:25:00,44.6,41.3,29.84,SE,130,4.0,4.0,88,0.00,,,0.00,0,Wunderground v.1.15,2013-11-16 09:25:00,
2013-11-16 03:30:00,44.8,41.5,29.84,SSE,166,6.0,6.0,88,0.00,,,0.00,0,Wunderground v.1.15,2013-11-16 09:30:00,
2013-11-16 03:40:00,45.1,41.8,29.83,SSW,195,6.0,6.0,88,0.00,,,0.00,0,Wunderground v.1.15,2013-11-16 09:40:00,
2013-11-16 03:45:00,45.2,41.9,29.83,SSE,149,6.0,6.0,88,0.00,,,0.00,0,Wunderground v.1.15,2013-11-16 09:45:00,
2013-11-16 03:50:00,45.3,42.0,29.83,South,184,5.0,6.0,88,0.00,,,0.00,0,Wunderground v.1.15,2013-11-16 09:50:00,
2013-11-16 03:55:00,45.4,42.1,29.83,SSE,151,5.0,5.0,88,0.00,,,0.00,0,Wunderground v.1.15,2013-11-16 09:55:00,
2013-11-16 04:00:00,45.5,42.2,29.83,South,181,4.0,5.0,88,0.00,,,0.00,0,Wunderground v.1.15,2013-11-16 10:00:00,
2013-11-16 04:05:00,45.6,42.3,29.83,SE,143,5.0,5.0,88,0.00,,,0.00,0,Wunderground v.1.15,2013-11-16 10:05:00,
2013-11-16 04:15:00,45.7,42.3,29.84,South,177,5.0,5.0,88,0.00,,,0.00,0,Wunderground v.1.15,2013-11-16 10:15:00,
2013-11-16 04:20:00,45.8,42.4,29.83,South,180,5.0,5.0,88,0.00,,,0.00,0,Wunderground v.1.15,2013-11-16 10:20:00,
2013-11-16 04:25:00,45.9,42.5,29.83,SSE,166,4.0,4.0,88,0.00,,,0.00,0,Wunderground v.1.15,2013-11-16 10:25:00,
2013-11-16 04:35:00,46.0,42.6,29.82,SSE,165,4.0,6.0,88,0.00,,,0.00,0,Wunderground v.1.15,2013-11-16 10:35:00,
2013-11-16 04:45:00,46.3,42.9,29.82,South,188,5.0,7.0,88,0.00,,,0.00,0,Wunderground v.1.15,2013-11-16 10:45:00,
2013-11-16 04:50:00,46.4,43.3,29.82,SSE,164,6.0,9.0,89,0.00,,,0.00,0,Wunderground v.1.15,2013-11-16 10:50:00,
2013-11-16 04:55:00,46.6,43.2,29.81,South,172,6.0,6.0,88,0.00,,,0.00,0,Wunderground v.1.15,2013-11-16 10:55:00,
2013-11-16 05:00:00,46.8,43.4,29.81,South,188,6.0,6.0,88,0.00,,,0.00,0,Wunderground v.1.15,2013-11-16 11:00:00,
2013-11-16 05:05:00,46.9,43.5,29.81,SE,142,5.0,6.0,88,0.00,,,0.00,0,Wunderground v.1.15,2013-11-16 11:05:00,
2013-11-16 05:10:00,47.0,43.6,29.80,South,180,5.0,6.0,88,0.00,,,0.00,0,Wunderground v.1.15,2013-11-16 11:10:00,
2013-11-16 05:15:00,47.0,43.6,29.80,SSE,168,6.0,13.0,88,0.00,,,0.00,0,Wunderground v.1.15,2013-11-16 11:15:00,
2013-11-16 05:20:00,47.1,43.7,29.79,SE,139,6.0,13.0,88,0.00,,,0.00,0,Wunderground v.1.15,2013-11-16 11:20:00,
2013-11-16 05:25:00,47.2,43.8,29.79,SSE,157,6.0,13.0,88,0.00,,,0.00,0,Wunderground v.1.15,2013-11-16 11:25:00,
2013-11-16 05:30:00,47.4,44.0,29.78,South,169,6.0,6.0,88,0.00,,,0.00,0,Wunderground v.1.15,2013-11-16 11:30:00,
2013-11-16 05:35:00,47.4,44.0,29.78,SSE,153,5.0,6.0,88,0.00,,,0.00,0,Wunderground v.1.15,2013-11-16 11:35:00,
2013-11-16 05:40:00,47.4,44.0,29.78,SE,144,6.0,8.0,88,0.00,,,0.00,0,Wunderground v.1.15,2013-11-16 11:40:00,
2013-11-16 05:45:00,47.3,43.9,29.78,SSE,167,7.0,8.0,88,0.00,,,0.00,0,Wunderground v.1.15,2013-11-16 11:45:00,
2013-11-16 05:50:00,47.3,43.9,29.78,SSW,192,6.0,6.0,88,0.00,,,0.00,0,Wunderground v.1.15,2013-11-16 11:50:00,
2013-11-16 05:55:00,47.3,43.9,29.78,SSE,156,6.0,6.0,88,0.00,,,0.00,0,Wunderground v.1.15,2013-11-16 11:55:00,
2013-11-16 06:05:00,47.3,43.9,29.78,SSE,149,5.0,5.0,88,0.00,,,0.00,0,Wunderground v.1.15,2013-11-16 12:05:00,
2013-11-16 06:15:00,47.5,44.1,29.79,SSW,198,6.0,6.0,88,0.00,,,0.00,0,Wunderground v.1.15,2013-11-16 12:15:00,
2013-11-16 06:20:00,47.6,44.2,29.78,SE,130,6.0,10.0,88,0.00,,,0.00,0,Wunderground v.1.15,2013-11-16 12:20:00,
2013-11-16 06:25:00,47.7,44.3,29.78,SSE,161,6.0,6.0,88,0.00,,,0.00,0,Wunderground v.1.15,2013-11-16 12:25:00,
2013-11-16 06:30:00,47.7,44.3,29.77,SSE,148,6.0,6.0,88,0.00,,,0.00,0,Wunderground v.1.15,2013-11-16 12:30:00,
2013-11-16 06:35:00,47.8,44.4,29.77,SSE,148,6.0,6.0,88,0.00,,,0.00,0,Wunderground v.1.15,2013-11-16 12:35:00,
2013-11-16 06:40:00,47.8,44.4,29.77,ESE,109,6.0,6.0,88,0.00,,,0.00,0,Wunderground v.1.15,2013-11-16 12:40:00,
2013-11-16 06:45:00,47.8,44.4,29.77,ESE,122,5.0,8.0,88,0.00,,,0.00,0,Wunderground v.1.15,2013-11-16 12:45:00,
2013-11-16 06:50:00,47.8,44.4,29.77,SE,128,6.0,6.0,88,0.00,,,0.00,0,Wunderground v.1.15,2013-11-16 12:50:00,
2013-11-16 06:55:00,47.9,44.5,29.76,SSE,165,6.0,7.0,88,0.00,,,0.00,0,Wunderground v.1.15,2013-11-16 12:55:00,
2013-11-16 07:05:00,47.8,44.4,29.76,SE,146,5.0,5.0,88,0.00,,,0.00,0,Wunderground v.1.15,2013-11-16 13:05:00,
2013-11-16 07:10:00,47.6,44.2,29.76,SSE,156,4.0,7.0,88,0.00,,,0.00,0,Wunderground v.1.15,2013-11-16 13:10:00,
2013-11-16 07:15:00,47.3,43.9,29.76,ESE,123,6.0,6.0,88,0.00,,,0.00,0,Wunderground v.1.15,2013-11-16 13:15:00,
2013-11-16 07:20:00,47.1,44.0,29.76,SSE,161,6.0,8.0,89,0.00,,,0.00,0,Wunderground v.1.15,2013-11-16 13:20:00,
2013-11-16 07:25:00,47.0,43.9,29.75,SE,142,6.0,6.0,89,0.00,,,0.00,0,Wunderground v.1.15,2013-11-16 13:25:00,
2013-11-16 07:35:00,46.9,43.8,29.75,East,99,6.0,8.0,89,0.00,,,0.00,0,Wunderground v.1.15,2013-11-16 13:35:00,
2013-11-16 07:40:00,46.8,44.0,29.77,South,177,6.0,9.0,90,0.00,,,0.00,0,Wunderground v.1.15,2013-11-16 13:40:00,
2013-11-16 07:55:00,47.1,44.3,29.75,South,174,6.0,6.0,90,0.00,,,0.00,0,Wunderground v.1.15,2013-11-16 13:55:00,
2013-11-16 08:00:00,47.2,44.4,29.74,SE,132,7.0,7.0,90,0.00,,,0.00,0,Wunderground v.1.15,2013-11-16 14:00:00,
2013-11-16 08:05:00,47.3,44.8,29.75,SE,138,5.0,5.0,91,0.00,,,0.00,0,Wunderground v.1.15,2013-11-16 14:05:00,
2013-11-16 08:10:00,47.6,45.1,29.75,SSE,153,5.0,5.0,91,0.00,,,0.00,0,Wunderground v.1.15,2013-11-16 14:10:00,
2013-11-16 08:15:00,47.8,45.3,29.74,SSE,151,6.0,6.0,91,0.00,,,0.00,0,Wunderground v.1.15,2013-11-16 14:15:00,
2013-11-16 08:25:00,48.2,45.7,29.74,SE,134,5.0,5.0,91,0.00,,,0.00,0,Wunderground v.1.15,2013-11-16 14:25:00,
2013-11-16 08:30:00,48.5,46.0,29.73,ESE,120,6.0,6.0,91,0.00,,,0.00,0,Wunderground v.1.15,2013-11-16 14:30:00,
2013-11-16 08:40:00,49.1,46.9,29.73,SSE,162,8.0,9.0,92,0.00,,,0.01,0,Wunderground v.1.15,2013-11-16 14:40:00,
2013-11-16 08:50:00,49.7,47.5,29.73,SE,142,7.0,10.0,92,0.07,,,0.02,0,Wunderground v.1.15,2013-11-16 14:50:00,
2013-11-16 08:55:00,49.9,47.4,29.72,South,181,8.0,10.0,91,0.06,,,0.02,0,Wunderground v.1.15,2013-11-16 14:55:00,
2013-11-16 09:00:00,50.1,47.9,29.73,South,180,7.0,7.0,92,0.04,,,0.02,0,Wunderground v.1.15,2013-11-16 15:00:00,
2013-11-16 09:05:00,50.4,48.2,29.73,SE,136,7.0,7.0,92,0.00,,,0.02,0,Wunderground v.1.15,2013-11-16 15:05:00,
2013-11-16 09:10:00,50.6,48.1,29.73,SE,124,7.0,7.0,91,0.00,,,0.02,0,Wunderground v.1.15,2013-11-16 15:10:00,
2013-11-16 09:15:00,50.8,48.3,29.72,East,98,6.0,8.0,91,0.00,,,0.02,0,Wunderground v.1.15,2013-11-16 15:15:00,
2013-11-16 09:20:00,50.8,48.3,29.72,SE,144,7.0,8.0,91,0.00,,,0.02,0,Wunderground v.1.15,2013-11-16 15:20:00,
2013-11-16 09:25:00,50.8,48.3,29.71,SE,124,8.0,10.0,91,0.00,,,0.02,0,Wunderground v.1.15,2013-11-16 15:25:00,
2013-11-16 09:30:00,50.9,48.4,29.70,SSE,161,8.0,10.0,91,0.00,,,0.02,0,Wunderground v.1.15,2013-11-16 15:30:00,
2013-11-16 09:35:00,50.9,48.4,29.69,SE,129,8.0,13.0,91,0.00,,,0.02,0,Wunderground v.1.15,2013-11-16 15:35:00,
2013-11-16 09:45:00,50.9,48.7,29.71,SSE,161,5.0,6.0,92,0.00,,,0.02,0,Wunderground v.1.15,2013-11-16 15:45:00,
2013-11-16 09:55:00,51.3,49.1,29.70,SSE,160,7.0,7.0,92,0.00,,,0.02,0,Wunderground v.1.15,2013-11-16 15:55:00,
2013-11-16 10:00:00,51.5,49.3,29.71,South,176,7.0,7.0,92,0.00,,,0.02,0,Wunderground v.1.15,2013-11-16 16:00:00,
2013-11-16 10:10:00,51.9,49.6,29.70,South,169,7.0,7.0,92,0.00,,,0.02,0,Wunderground v.1.15,2013-11-16 16:10:00,
2013-11-16 10:15:00,52.1,49.8,29.70,ESE,123,8.0,8.0,92,0.00,,,0.02,0,Wunderground v.1.15,2013-11-16 16:15:00,
2013-11-16 10:20:00,52.3,49.8,29.70,SSW,198,7.0,8.0,91,0.00,,,0.02,0,Wunderground v.1.15,2013-11-16 16:20:00,
2013-11-16 10:25:00,52.4,49.8,29.69,South,189,6.0,6.0,91,0.00,,,0.02,0,Wunderground v.1.15,2013-11-16 16:25:00,
2013-11-16 10:30:00,52.6,50.0,29.69,SSE,161,6.0,6.0,91,0.00,,,0.02,0,Wunderground v.1.15,2013-11-16 16:30:00,
2013-11-16 10:35:00,52.7,50.1,29.69,ESE,108,6.0,7.0,91,0.00,,,0.02,0,Wunderground v.1.15,2013-11-16 16:35:00,
2013-11-16 10:40:00,52.9,50.3,29.69,SSE,161,7.0,7.0,91,0.00,,,0.02,0,Wunderground v.1.15,2013-11-16 16:40:00,
2013-11-16 10:55:00,53.4,50.8,29.70,SE,141,7.0,7.0,91,0.00,,,0.02,0,Wunderground v.1.15,2013-11-16 16:55:00,
2013-11-16 11:00:00,53.7,50.8,29.69,SE,141,7.0,7.0,90,0.00,,,0.02,0,Wunderground v.1.15,2013-11-16 17:00:00,
2013-11-16 11:05:00,54.0,51.1,29.69,SE,134,7.0,9.0,90,0.00,,,0.02,0,Wunderground v.1.15,2013-11-16 17:05:00,
2013-11-16 11:15:00,54.5,51.6,29.68,SSE,167,7.0,7.0,90,0.00,,,0.02,0,Wunderground v.1.15,2013-11-16 17:15:00,
2013-11-16 11:20:00,54.6,51.4,29.67,SSE,161,6.0,8.0,89,0.00,,,0.02,0,Wunderground v.1.15,2013-11-16 17:20:00,
2013-11-16 11:25:00,54.8,51.6,29.67,South,173,6.0,9.0,89,0.00,,,0.02,0,Wunderground v.1.15,2013-11-16 17:25:00,
2013-11-16 11:30:00,55.0,51.8,29.67,SSE,147,7.0,14.0,89,0.00,,,0.02,0,Wunderground v.1.15,2013-11-16 17:30:00,
2013-11-16 11:35:00,55.3,52.1,29.66,SE,140,8.0,14.0,89,0.00,,,0.02,0,Wunderground v.1.15,2013-11-16 17:35:00,
2013-11-16 11:40:00,55.7,52.2,29.66,SSE,153,9.0,14.0,88,0.00,,,0.02,0,Wunderground v.1.15,2013-11-16 17:40:00,
2013-11-16 11:45:00,56.1,52.3,29.65,South,186,10.0,14.0,87,0.00,,,0.02,0,Wunderground v.1.15,2013-11-16 17:45:00,
2013-11-16 11:50:00,56.3,52.5,29.65,South,178,9.0,14.0,87,0.00,,,0.02,0,Wunderground v.1.15,2013-11-16 17:50:00,
2013-11-16 11:55:00,56.5,52.7,29.65,South,180,8.0,9.0,87,0.00,,,0.02,0,Wunderground v.1.15,2013-11-16 17:55:00,
2013-11-16 12:00:00,56.7,52.9,29.65,SSE,159,9.0,13.0,87,0.00,,,0.02,0,Wunderground v.1.15,2013-11-16 18:00:00,
2013-11-16 12:05:00,56.9,53.1,29.65,SSE,153,8.0,8.0,87,0.00,,,0.02,0,Wunderground v.1.15,2013-11-16 18:05:00,
2013-11-16 12:20:00,56.9,53.1,29.65,South,180,8.0,8.0,87,0.00,,,0.03,0,Wunderground v.1.15,2013-11-16 18:20:00,
2013-11-16 12:25:00,56.9,53.1,29.64,SE,132,8.0,8.0,87,0.00,,,0.03,0,Wunderground v.1.15,2013-11-16 18:25:00,
2013-11-16 12:30:00,56.8,53.0,29.64,South,191,8.0,9.0,87,0.00,,,0.03,0,Wunderground v.1.15,2013-11-16 18:30:00,
2013-11-16 12:35:00,56.9,53.4,29.63,South,173,8.0,9.0,88,0.00,,,0.03,0,Wunderground v.1.15,2013-11-16 18:35:00,
2013-11-16 12:45:00,56.7,53.5,29.62,SSE,162,7.0,7.0,89,0.00,,,0.04,0,Wunderground v.1.15,2013-11-16 18:45:00,
2013-11-16 12:50:00,56.6,53.4,29.61,SSW,198,7.0,7.0,89,0.09,,,0.05,0,Wunderground v.1.15,2013-11-16 18:50:00,
2013-11-16 12:55:00,56.6,53.4,29.61,South,180,8.0,11.0,89,0.06,,,0.05,0,Wunderground v.1.15,2013-11-16 18:55:00,
2013-11-16 13:00:00,56.8,53.6,29.61,SE,146,9.0,11.0,89,0.04,,,0.05,0,Wunderground v.1.15,2013-11-16 19:00:00,
2013-11-16 13:10:00,57.1,53.9,29.62,South,182,8.0,9.0,89,0.00,,,0.05,0,Wunderground v.1.15,2013-11-16 19:10:00,
2013-11-16 13:15:00,57.1,53.9,29.61,South,174,8.0,11.0,89,0.00,,,0.05,0,Wunderground v.1.15,2013-11-16 19:15:00,
2013-11-16 13:25:00,57.1,53.6,29.60,ESE,122,7.0,8.0,88,0.00,,,0.05,0,Wunderground v.1.15,2013-11-16 19:25:00,
2013-11-16 13:30:00,57.1,53.9,29.59,SSE,163,7.0,10.0,89,0.00,,,0.05,0,Wunderground v.1.15,2013-11-16 19:30:00,
2013-11-16 13:40:00,57.0,53.8,29.58,ESE,109,9.0,13.0,89,0.00,,,0.06,0,Wunderground v.1.15,2013-11-16 19:40:00,
2013-11-16 13:45:00,57.1,53.9,29.57,SE,135,9.0,9.0,89,0.00,,,0.06,0,Wunderground v.1.15,2013-11-16 19:45:00,
2013-11-16 13:50:00,57.1,53.9,29.57,SE,140,9.0,9.0,89,0.00,,,0.06,0,Wunderground v.1.15,2013-11-16 19:50:00,
2013-11-16 13:55:00,57.2,54.0,29.57,South,175,9.0,9.0,89,0.00,,,0.06,0,Wunderground v.1.15,2013-11-16 19:55:00,
2013-11-16 14:00:00,57.2,54.0,29.56,SE,128,9.0,9.0,89,0.00,,,0.06,0,Wunderground v.1.15,2013-11-16 20:00:00,
2013-11-16 14:05:00,57.2,54.0,29.56,ESE,115,9.0,11.0,89,0.00,,,0.06,0,Wunderground v.1.15,2013-11-16 20:05:00,
2013-11-16 14:10:00,57.2,54.0,29.56,SSE,159,8.0,13.0,89,0.00,,,0.06,0,Wunderground v.1.15,2013-11-16 20:10:00,
2013-11-16 14:15:00,57.2,54.0,29.56,SSE,155,9.0,9.0,89,0.00,,,0.06,0,Wunderground v.1.15,2013-11-16 20:15:00,
2013-11-16 14:30:00,57.4,53.9,29.58,SSE,163,8.0,12.0,88,0.00,,,0.06,0,Wunderground v.1.15,2013-11-16 20:30:00,
2013-11-16 14:40:00,57.2,54.0,29.56,ESE,123,8.0,8.0,89,0.00,,,0.07,0,Wunderground v.1.15,2013-11-16 20:40:00,
2013-11-16 14:50:00,57.1,53.9,29.54,South,175,8.0,8.0,89,0.00,,,0.07,0,Wunderground v.1.15,2013-11-16 20:50:00,
2013-11-16 14:55:00,57.2,54.3,29.53,SSE,163,8.0,8.0,90,0.00,,,0.07,0,Wunderground v.1.15,2013-11-16 20:55:00,
2013-11-16 15:00:00,57.4,54.2,29.53,SSE,165,8.0,8.0,89,0.00,,,0.07,0,Wunderground v.1.15,2013-11-16 21:00:00,
2013-11-16 15:05:00,57.6,54.4,29.52,SE,133,7.0,15.0,89,0.00,,,0.07,0,Wunderground v.1.15,2013-11-16 21:05:00,
2013-11-16 15:10:00,57.8,54.3,29.53,SW,217,7.0,15.0,88,0.00,,,0.07,0,Wunderground v.1.15,2013-11-16 21:10:00,
2013-11-16 15:20:00,57.9,54.4,29.53,South,174,8.0,8.0,88,0.00,,,0.07,0,Wunderground v.1.15,2013-11-16 21:20:00,
2013-11-16 15:35:00,58.1,54.6,29.53,South,179,9.0,9.0,88,0.00,,,0.07,0,Wunderground v.1.15,2013-11-16 21:35:00,
2013-11-16 15:40:00,58.1,54.6,29.52,South,182,8.0,9.0,88,0.00,,,0.07,0,Wunderground v.1.15,2013-11-16 21:40:00,
2013-11-16 15:45:00,58.0,54.5,29.53,SSW,194,9.0,10.0,88,0.00,,,0.07,0,Wunderground v.1.15,2013-11-16 21:45:00,
2013-11-16 15:50:00,58.0,54.5,29.52,South,171,9.0,10.0,88,0.00,,,0.07,0,Wunderground v.1.15,2013-11-16 21:50:00,
2013-11-16 15:55:00,58.0,54.5,29.52,South,178,10.0,10.0,88,0.00,,,0.07,0,Wunderground v.1.15,2013-11-16 21:55:00,
2013-11-16 16:00:00,58.0,54.5,29.53,SE,135,10.0,15.0,88,0.00,,,0.07,0,Wunderground v.1.15,2013-11-16 22:00:00,
2013-11-16 16:15:00,58.0,54.2,29.53,SSE,149,11.0,11.0,87,0.00,,,0.07,0,Wunderground v.1.15,2013-11-16 22:15:00,
2013-11-16 16:20:00,58.0,54.2,29.54,SSE,165,10.0,11.0,87,0.00,,,0.07,0,Wunderground v.1.15,2013-11-16 22:20:00,
2013-11-16 16:25:00,58.0,54.2,29.54,SSE,148,9.0,14.0,87,0.00,,,0.07,0,Wunderground v.1.15,2013-11-16 22:25:00,
2013-11-16 16:35:00,58.0,54.2,29.55,SSW,209,11.0,11.0,87,0.00,,,0.07,0,Wunderground v.1.15,2013-11-16 22:35:00,
2013-11-16 16:50:00,57.8,54.3,29.56,SSW,196,10.0,12.0,88,0.00,,,0.07,0,Wunderground v.1.15,2013-11-16 22:50:00,
2013-11-16 16:55:00,57.8,54.3,29.56,South,181,9.0,12.0,88,0.00,,,0.07,0,Wunderground v.1.15,2013-11-16 22:55:00,
2013-11-16 17:00:00,57.8,54.3,29.56,SSE,166,8.0,10.0,88,0.00,,,0.07,0,Wunderground v.1.15,2013-11-16 23:00:00,
2013-11-16 17:05:00,57.8,54.3,29.56,SSW,202,9.0,9.0,88,0.00,,,0.07,0,Wunderground v.1.15,2013-11-16 23:05:00,
2013-11-16 17:10:00,57.7,54.2,29.56,SSE,168,9.0,9.0,88,0.00,,,0.07,0,Wunderground v.1.15,2013-11-16 23:10:00,
2013-11-16 17:15:00,57.6,54.1,29.57,South,190,8.0,8.0,88,0.00,,,0.07,0,Wunderground v.1.15,2013-11-16 23:15:00,
2013-11-16 17:20:00,57.6,54.1,29.57,SE,146,8.0,8.0,88,0.00,,,0.07,0,Wunderground v.1.15,2013-11-16 23:20:00,
2013-11-16 17:25:00,57.5,54.0,29.57,SSW,192,7.0,8.0,88,0.00,,,0.07,0,Wunderground v.1.15,2013-11-16 23:25:00,
2013-11-16 17:35:00,57.5,54.0,29.56,SSE,160,8.0,8.0,88,0.00,,,0.07,0,Wunderground v.1.15,2013-11-16 23:35:00,
2013-11-16 17:40:00,57.6,54.1,29.56,SE,146,9.0,9.0,88,0.00,,,0.07,0,Wunderground v.1.15,2013-11-16 23:40:00,
2013-11-16 17:50:00,57.6,54.1,29.56,South,182,8.0,10.0,88,0.00,,,0.07,0,Wunderground v.1.15,2013-11-16 23:50:00,
2013-11-16 18:00:00,57.6,54.1,29.56,South,169,9.0,9.0,88,0.00,,,0.07,0,Wunderground v.1.15,2013-11-17 00:00:00,
2013-11-16 18:05:00,57.6,54.1,29.55,South,182,10.0,10.0,88,0.00,,,0.07,0,Wunderground v.1.15,2013-11-17 00:05:00,
2013-11-16 18:10:00,57.8,54.3,29.55,SE,126,10.0,11.0,88,0.00,,,0.07,0,Wunderground v.1.15,2013-11-17 00:10:00,
2013-11-16 18:20:00,57.8,54.3,29.54,SE,146,12.0,12.0,88,0.00,,,0.07,0,Wunderground v.1.15,2013-11-17 00:20:00,
2013-11-16 18:25:00,57.7,53.9,29.55,South,169,11.0,18.0,87,0.00,,,0.07,0,Wunderground v.1.15,2013-11-17 00:25:00,
2013-11-16 18:30:00,57.5,54.0,29.55,South,187,10.0,10.0,88,0.00,,,0.07,0,Wunderground v.1.15,2013-11-17 00:30:00,
2013-11-16 18:35:00,57.6,54.1,29.55,SSE,157,9.0,10.0,88,0.00,,,0.07,0,Wunderground v.1.15,2013-11-17 00:35:00,
2013-11-16 18:40:00,57.6,54.1,29.55,South,171,9.0,9.0,88,0.00,,,0.07,0,Wunderground v.1.15,2013-11-17 00:40:00,
2013-11-16 18:50:00,57.5,53.7,29.55,SSE,165,10.0,10.0,87,0.00,,,0.07,0,Wunderground v.1.15,2013-11-17 00:50:00,
2013-11-16 18:55:00,57.4,53.9,29.55,South,177,9.0,11.0,88,0.00,,,0.07,0,Wunderground v.1.15,2013-11-17 00:55:00,
2013-11-16 19:00:00,57.2,53.7,29.55,SSW,205,9.0,15.0,88,0.00,,,0.07,0,Wunderground v.1.15,2013-11-17 01:00:00,
2013-11-16 19:05:00,57.2,53.7,29.55,South,181,10.0,10.0,88,0.00,,,0.07,0,Wunderground v.1.15,2013-11-17 01:05:00,
2013-11-16 19:10:00,57.3,53.8,29.55,South,187,11.0,14.0,88,0.00,,,0.07,0,Wunderground v.1.15,2013-11-17 01:10:00,
2013-11-16 19:20:00,57.3,53.8,29.54,SSW,194,11.0,11.0,88,0.00,,,0.07,0,Wunderground v.1.15,2013-11-17 01:20:00,
2013-11-16 19:25:00,57.3,53.8,29.54,SE,140,11.0,11.0,88,0.00,,,0.07,0,Wunderground v.1.15,2013-11-17 01:25:00,
2013-11-16 19:30:00,57.2,53.7,29.55,South,187,9.0,9.0,88,0.00,,,0.07,0,Wunderground v.1.15,2013-11-17 01:30:00,
2013-11-16 19:40:00,57.1,53.6,29.54,SSW,202,10.0,10.0,88,0.00,,,0.07,0,Wunderground v.1.15,2013-11-17 01:40:00,
2013-11-16 19:50:00,57.1,53.6,29.55,South,178,9.0,9.0,88,0.00,,,0.07,0,Wunderground v.1.15,2013-11-17 01:50:00,
2013-11-16 20:00:00,57.1,53.6,29.55,South,190,9.0,9.0,88,0.00,,,0.07,0,Wunderground v.1.15,2013-11-17 02:00:00,
2013-11-16 20:05:00,57.2,53.7,29.55,SE,143,9.0,9.0,88,0.00,,,0.07,0,Wunderground v.1.15,2013-11-17 02:05:00,
2013-11-16 20:10:00,57.2,53.7,29.55,South,190,9.0,11.0,88,0.00,,,0.07,0,Wunderground v.1.15,2013-11-17 02:10:00,
2013-11-16 20:15:00,57.2,53.7,29.55,SSW,195,11.0,11.0,88,0.00,,,0.07,0,Wunderground v.1.15,2013-11-17 02:15:00,
2013-11-16 20:20:00,57.1,53.6,29.55,SSE,168,10.0,10.0,88,0.00,,,0.07,0,Wunderground v.1.15,2013-11-17 02:20:00,
2013-11-16 20:25:00,57.1,53.6,29.55,South,186,9.0,10.0,88,0.00,,,0.07,0,Wunderground v.1.15,2013-11-17 02:25:00,
2013-11-16 20:30:00,57.1,53.9,29.55,SSW,193,9.0,9.0,89,0.00,,,0.07,0,Wunderground v.1.15,2013-11-17 02:30:00,
2013-11-16 20:35:00,57.1,53.6,29.55,South,190,9.0,13.0,88,0.00,,,0.07,0,Wunderground v.1.15,2013-11-17 02:35:00,
2013-11-16 20:40:00,57.2,53.7,29.55,SSW,194,10.0,11.0,88,0.00,,,0.07,0,Wunderground v.1.15,2013-11-17 02:40:00,
2013-11-16 20:50:00,57.5,54.3,29.55,South,188,9.0,9.0,89,0.00,,,0.07,0,Wunderground v.1.15,2013-11-17 02:50:00,
2013-11-16 20:55:00,57.6,54.1,29.55,South,173,9.0,10.0,88,0.00,,,0.07,0,Wunderground v.1.15,2013-11-17 02:55:00,
2013-11-16 21:05:00,57.9,54.4,29.56,South,188,9.0,9.0,88,0.00,,,0.07,0,Wunderground v.1.15,2013-11-17 03:05:00,
2013-11-16 21:15:00,57.9,54.4,29.56,SSW,198,9.0,13.0,88,0.00,,,0.07,0,Wunderground v.1.15,2013-11-17 03:15:00,
2013-11-16 21:20:00,57.9,54.4,29.55,South,177,9.0,13.0,88,0.00,,,0.07,0,Wunderground v.1.15,2013-11-17 03:20:00,
2013-11-16 21:25:00,57.8,54.3,29.55,SSW,201,9.0,9.0,88,0.00,,,0.07,0,Wunderground v.1.15,2013-11-17 03:25:00,
2013-11-16 21:30:00,57.8,54.3,29.55,South,190,8.0,11.0,88,0.00,,,0.07,0,Wunderground v.1.15,2013-11-17 03:30:00,
2013-11-16 21:35:00,57.9,54.4,29.55,South,183,9.0,11.0,88,0.00,,,0.07,0,Wunderground v.1.15,2013-11-17 03:35:00,
2013-11-16 21:40:00,58.0,54.5,29.55,SSE,148,10.0,11.0,88,0.00,,,0.07,0,Wunderground v.1.15,2013-11-17 03:40:00,
2013-11-16 21:50:00,58.0,54.5,29.54,South,180,9.0,10.0,88,0.00,,,0.07,0,Wunderground v.1.15,2013-11-17 03:50:00,
2013-11-16 22:00:00,58.1,54.6,29.54,South,175,9.0,9.0,88,0.00,,,0.07,0,Wunderground v.1.15,2013-11-17 04:00:00,
2013-11-16 22:10:00,58.1,54.2,29.54,South,184,10.0,14.0,87,0.00,,,0.07,0,Wunderground v.1.15,2013-11-17 04:10:00,
2013-11-16 22:15:00,58.1,54.2,29.54,SSW,198,9.0,14.0,87,0.00,,,0.07,0,Wunderground v.1.15,2013-11-17 04:15:00,
2013-11-16 22:20:00,58.0,54.5,29.54,South,188,9.0,9.0,88,0.00,,,0.07,0,Wunderground v.1.15,2013-11-17 04:20:00,
2013-11-16 22:30:00,58.0,54.5,29.54,South,169,9.0,11.0,88,0.00,,,0.07,0,Wunderground v.1.15,2013-11-17 04:30:00,
2013-11-16 22:45:00,58.0,54.5,29.54,South,180,9.0,9.0,88,0.00,,,0.07,0,Wunderground v.1.15,2013-11-17 04:45:00,
2013-11-16 22:50:00,58.1,54.6,29.54,SSE,157,10.0,10.0,88,0.00,,,0.07,0,Wunderground v.1.15,2013-11-17 04:50:00,
2013-11-16 23:00:00,58.1,54.6,29.54,South,178,10.0,10.0,88,0.00,,,0.07,0,Wunderground v.1.15,2013-11-17 05:00:00,
2013-11-16 23:05:00,58.0,54.5,29.54,South,170,9.0,9.0,88,0.00,,,0.07,0,Wunderground v.1.15,2013-11-17 05:05:00,
2013-11-16 23:25:00,58.1,54.6,29.53,South,181,8.0,15.0,88,0.00,,,0.07,0,Wunderground v.1.15,2013-11-17 05:25:00,
2013-11-16 23:35:00,58.2,54.7,29.53,South,178,9.0,9.0,88,0.00,,,0.07,0,Wunderground v.1.15,2013-11-17 05:35:00,
2013-11-16 23:40:00,58.2,54.7,29.53,South,176,8.0,10.0,88,0.00,,,0.07,0,Wunderground v.1.15,2013-11-17 05:40:00,
2013-11-16 23:50:00,58.2,54.7,29.52,South,188,7.0,8.0,88,0.00,,,0.07,0,Wunderground v.1.15,2013-11-17 05:50:00,
2013-11-16 23:55:00,58.3,54.8,29.52,SSW,198,7.0,7.0,88,0.00,,,0.07,0,Wunderground v.1.15,2013-11-17 05:55:00,